OINN  Noshahr Airport

Add Bookmark

Iran

Status IATA
Operational NSH
Latitude Longitude
36° 39' 47" N 51° 27' 52" E
36.663300 51.464699
Local (DST + 5) UTC (GMT + 4)
Dec 23, 2014 07:53 Dec 23, 2014 04:23
Sunrise-Sunset Local UTC
Begin Civil Twilight 06:43 03:13
Sunrise 07:12 03:42
Sunset 04:54 13:24
End Civil Twilight 05:23 13:53

Current Weather

METAR Observed VFR
OINN 230400Z 30004KT 9999 FEW020CB SCT025 06/05 Q1017 Tue, Dec 23, 2014 @ 04:00 UTC
(23 Minutes ago)
Visual Flight Rules
Wind Visibility Clouds Conditions
300° at 4 knots (7 kph) 10 km or more
  • Few at 2,000' AGL
  • Scattered at 2,500' AGL
  • No significant weather
Temperatures Readings Precipitation
Current Temp 6°C (43°F)
Dewpoint 5°C (41°F)
Humidity 93%
Altimeter 30.03"Hg
Sea Level Pressure 1017mb
None Recorded

Additional weather within a 92.6km radius of OINN

Map ICAO Location
OINR 75km W (292°)

24 Hour Weather History

Loading
-

24 Hour Weather Graphs

Loading
-

CheckWX.com is intended as a tool to help pilots better visualize weather data. It is not intended as a substitute for an official weather briefing obtained from a Flight Service Station. CheckWX.com does not meet the FAA requirements for an official pre-flight weather briefing. Therefore, it's important that pilots still call and obtain an official FSS pre-flight weather briefing.